Chouei Maru — JD3172 — position and weather

sailwx.info

Track history (hours):
 
Tides and Currents Weather Stations Pressure Air Temp Water Temp Dewpoint Dewpoint Depression Visibility Wind Speed Wind Dir Waves Ship Positions

Chouei Maru

Last reported at 2017-Dec-09 17:31 UTC. Time now 2017-Dec-15 08:26 UTC.
Position N 34°20' E 130°48'.

Length 68 m.

Type: Cargo ship. MMSI: 431002349.

Date/timePositionNaut miles runAvg speedWind from/ knotsBaromVisibWave heightAir tempDewpointWater temp
2017-Dec-09 17:31N 34°20' E 130°48'012.6
2017-Dec-09 17:30N 34°20' E 130°48'612.5
2017-Dec-09 17:00N 34°14' E 130°49'612.2
2017-Dec-09 16:30N 34°08' E 130°50'612.4
2017-Dec-09 16:00N 34°02' E 130°52'611.6
2017-Dec-09 15:30N 33°56' E 130°53'4 7.6
2017-Dec-09 15:00N 33°57' E 130°57'510.1
2017-Dec-09 14:30N 33°57' E 131°03'612.5
2017-Dec-09 14:00N 33°54' E 131°10'612.5
2017-Dec-09 13:30N 33°52' E 131°17'612.6
2017-Dec-09 13:00N 33°50' E 131°24'712.6
2017-Dec-09 12:29N 33°49' E 131°32'612.7
2017-Dec-09 12:00N 33°48' E 131°39'5012.0
2017-Dec-09 07:51N 34°01' E 132°37'512.7
2017-Dec-09 07:29N 34°03' E 132°42'10311.2
2017-Dec-08 22:19N 34°42' E 134°37'611.3
2017-Dec-08 21:48N 34°43' E 134°44'3 0.1
2017-Dec-07 13:13N 34°43' E 134°48'2 7.8
2017-Dec-07 12:59N 34°41' E 134°49'2 0.2
2017-Dec-07 02:14N 34°43' E 134°51'0 1.5
2017-Dec-07 01:56N 34°43' E 134°51'510.8
2017-Dec-07 01:30N 34°38' E 134°52'715.0
2017-Dec-07 01:00N 34°37' E 135°01'611.9
2017-Dec-07 00:30N 34°32' E 135°04'713.7
2017-Dec-07 00:00N 34°25' E 135°02'713.8
2017-Dec-06 23:30N 34°18' E 134°60'713.0
2017-Dec-06 23:00N 34°12' E 135°00'612.7
2017-Dec-06 22:30N 34°05' E 135°01'  
2017-Dec-04 04:15N 33°59' E 135°01'312.6
2017-Dec-04 03:59N 34°03' E 135°00'612.6
2017-Dec-04 03:28N 34°09' E 134°60'612.7
2017-Dec-04 03:00N 34°15' E 134°59'611.9
2017-Dec-04 02:30N 34°21' E 135°00'611.3
2017-Dec-04 02:00N 34°26' E 135°01'611.7
2017-Dec-04 01:30N 34°32' E 135°02'5 9.1
2017-Dec-04 01:00N 34°37' E 135°01'510.3
2017-Dec-04 00:30N 34°37' E 134°55'510.6
2017-Dec-04 00:00N 34°40' E 134°50'2 0.1
2017-Dec-03 13:27N 34°41' E 134°49'  
2017-Dec-01 06:16N 34°43' E 134°51'2 6.3
2017-Dec-01 05:56N 34°41' E 134°49'512.3
2017-Dec-01 05:30N 34°42' E 134°43'10712.4
2017-Nov-30 20:56N 34°03' E 132°42'613.6
2017-Nov-30 20:30N 34°00' E 132°36'4411.9
2017-Nov-30 16:47N 33°47' E 131°45'412.4
2017-Nov-30 16:30N 33°48' E 131°41'612.2
2017-Nov-30 15:59N 33°49' E 131°34'612.5
2017-Nov-30 15:29N 33°50' E 131°26'612.7
2017-Nov-30 15:00N 33°51' E 131°19'612.7
2017-Nov-30 14:30N 33°53' E 131°12'713.1
2017-Nov-30 14:00N 33°56' E 131°05'612.1
2017-Nov-30 13:30N 33°58' E 130°58'5 9.4
2017-Nov-30 13:00N 33°55' E 130°53'510.8
2017-Nov-30 12:30N 34°01' E 130°52'612.3
2017-Nov-30 12:00N 34°07' E 130°50'612.2
2017-Nov-30 11:30N 34°13' E 130°49'712.3
2017-Nov-30 10:57N 34°19' E 130°49'510.9
2017-Nov-30 10:27N 34°24' E 130°51'  
Track history (hours):
 
Tides and Currents Weather Stations Pressure Air Temp Water Temp Dewpoint Dewpoint Depression Visibility Wind Speed Wind Dir Waves Ship Positions

Chouei Maru

Last reported at 2017-Dec-09 17:31 UTC. Time now 2017-Dec-15 08:26 UTC.
Position N 34°20' E 130°48'.

Length 68 m.

Type: Cargo ship. MMSI: 431002349.

Date/timePositionNaut miles runAvg speedWind from/ knotsBaromVisibWave heightAir tempDewpointWater temp
2017-Dec-09 17:31N 34°20' E 130°48'012.6
2017-Dec-09 17:30N 34°20' E 130°48'612.5
2017-Dec-09 17:00N 34°14' E 130°49'612.2
2017-Dec-09 16:30N 34°08' E 130°50'612.4
2017-Dec-09 16:00N 34°02' E 130°52'611.6
2017-Dec-09 15:30N 33°56' E 130°53'4 7.6
2017-Dec-09 15:00N 33°57' E 130°57'510.1
2017-Dec-09 14:30N 33°57' E 131°03'612.5
2017-Dec-09 14:00N 33°54' E 131°10'612.5
2017-Dec-09 13:30N 33°52' E 131°17'612.6
2017-Dec-09 13:00N 33°50' E 131°24'712.6
2017-Dec-09 12:29N 33°49' E 131°32'612.7
2017-Dec-09 12:00N 33°48' E 131°39'5012.0
2017-Dec-09 07:51N 34°01' E 132°37'512.7
2017-Dec-09 07:29N 34°03' E 132°42'10311.2
2017-Dec-08 22:19N 34°42' E 134°37'611.3
2017-Dec-08 21:48N 34°43' E 134°44'3 0.1
2017-Dec-07 13:13N 34°43' E 134°48'2 7.8
2017-Dec-07 12:59N 34°41' E 134°49'2 0.2
2017-Dec-07 02:14N 34°43' E 134°51'0 1.5
2017-Dec-07 01:56N 34°43' E 134°51'510.8
2017-Dec-07 01:30N 34°38' E 134°52'715.0
2017-Dec-07 01:00N 34°37' E 135°01'611.9
2017-Dec-07 00:30N 34°32' E 135°04'713.7
2017-Dec-07 00:00N 34°25' E 135°02'713.8
2017-Dec-06 23:30N 34°18' E 134°60'713.0
2017-Dec-06 23:00N 34°12' E 135°00'612.7
2017-Dec-06 22:30N 34°05' E 135°01'  
2017-Dec-04 04:15N 33°59' E 135°01'312.6
2017-Dec-04 03:59N 34°03' E 135°00'612.6
2017-Dec-04 03:28N 34°09' E 134°60'612.7
2017-Dec-04 03:00N 34°15' E 134°59'611.9
2017-Dec-04 02:30N 34°21' E 135°00'611.3
2017-Dec-04 02:00N 34°26' E 135°01'611.7
2017-Dec-04 01:30N 34°32' E 135°02'5 9.1
2017-Dec-04 01:00N 34°37' E 135°01'510.3
2017-Dec-04 00:30N 34°37' E 134°55'510.6
2017-Dec-04 00:00N 34°40' E 134°50'2 0.1
2017-Dec-03 13:27N 34°41' E 134°49'  
2017-Dec-01 06:16N 34°43' E 134°51'2 6.3
2017-Dec-01 05:56N 34°41' E 134°49'512.3
2017-Dec-01 05:30N 34°42' E 134°43'10712.4
2017-Nov-30 20:56N 34°03' E 132°42'613.6
2017-Nov-30 20:30N 34°00' E 132°36'4411.9
2017-Nov-30 16:47N 33°47' E 131°45'412.4
2017-Nov-30 16:30N 33°48' E 131°41'612.2
2017-Nov-30 15:59N 33°49' E 131°34'612.5
2017-Nov-30 15:29N 33°50' E 131°26'612.7
2017-Nov-30 15:00N 33°51' E 131°19'612.7
2017-Nov-30 14:30N 33°53' E 131°12'713.1
2017-Nov-30 14:00N 33°56' E 131°05'612.1
2017-Nov-30 13:30N 33°58' E 130°58'5 9.4
2017-Nov-30 13:00N 33°55' E 130°53'510.8
2017-Nov-30 12:30N 34°01' E 130°52'612.3
2017-Nov-30 12:00N 34°07' E 130°50'612.2
2017-Nov-30 11:30N 34°13' E 130°49'712.3
2017-Nov-30 10:57N 34°19' E 130°49'510.9
2017-Nov-30 10:27N 34°24' E 130°51'  

Dump ship's entire track history